sensor_id;sensor_type;location;lat;lon;timestamp;pressure;altitude;pressure_sealevel;temperature;humidity
64698;BME280;51124;53.394;-6.294;2023-12-14T00:02:05;100773.67;;;20.47;9.87
64698;BME280;51124;53.394;-6.294;2023-12-14T00:04:32;100774.10;;;20.10;10.38
64698;BME280;51124;53.394;-6.294;2023-12-14T00:07:00;100775.49;;;20.03;10.46
64698;BME280;51124;53.394;-6.294;2023-12-14T00:09:27;100775.83;;;19.20;10.81
64698;BME280;51124;53.394;-6.294;2023-12-14T00:11:55;100763.52;;;19.91;10.85
64698;BME280;51124;53.394;-6.294;2023-12-14T00:14:23;100768.80;;;19.82;10.95
64698;BME280;51124;53.394;-6.294;2023-12-14T00:16:51;100775.44;;;19.43;10.98
64698;BME280;51124;53.394;-6.294;2023-12-14T00:19:19;100773.96;;;19.05;11.12
64698;BME280;51124;53.394;-6.294;2023-12-14T00:21:46;100772.44;;;20.52;10.94
64698;BME280;51124;53.394;-6.294;2023-12-14T00:24:14;100763.53;;;20.95;10.84
64698;BME280;51124;53.394;-6.294;2023-12-14T00:26:42;100770.07;;;19.60;11.15
64698;BME280;51124;53.394;-6.294;2023-12-14T00:29:09;100764.22;;;19.70;11.21
64698;BME280;51124;53.394;-6.294;2023-12-14T00:31:37;100760.68;;;18.94;11.26
64698;BME280;51124;53.394;-6.294;2023-12-14T00:34:04;100755.05;;;19.62;11.37
64698;BME280;51124;53.394;-6.294;2023-12-14T00:36:32;100750.24;;;19.08;11.39
64698;BME280;51124;53.394;-6.294;2023-12-14T00:38:59;100750.30;;;19.25;11.25
64698;BME280;51124;53.394;-6.294;2023-12-14T00:41:27;100757.55;;;19.84;11.11
64698;BME280;51124;53.394;-6.294;2023-12-14T00:43:55;100752.01;;;18.51;11.63
64698;BME280;51124;53.394;-6.294;2023-12-14T00:46:22;100745.11;;;20.44;11.31
64698;BME280;51124;53.394;-6.294;2023-12-14T00:48:50;100741.02;;;19.00;11.44
64698;BME280;51124;53.394;-6.294;2023-12-14T00:51:17;100736.47;;;18.80;11.37
64698;BME280;51124;53.394;-6.294;2023-12-14T00:53:45;100732.77;;;17.25;11.11
64698;BME280;51124;53.394;-6.294;2023-12-14T00:56:12;100737.02;;;17.15;10.73
64698;BME280;51124;53.394;-6.294;2023-12-14T00:58:40;100729.44;;;17.34;10.38
64698;BME280;51124;53.394;-6.294;2023-12-14T01:01:07;100722.43;;;18.14;9.92
64698;BME280;51124;53.394;-6.294;2023-12-14T01:03:35;100725.19;;;18.39;9.85
64698;BME280;51124;53.394;-6.294;2023-12-14T01:06:02;100727.52;;;18.18;9.89
64698;BME280;51124;53.394;-6.294;2023-12-14T01:08:30;100728.64;;;17.59;9.73
64698;BME280;51124;53.394;-6.294;2023-12-14T01:10:57;100732.11;;;16.47;9.79
64698;BME280;51124;53.394;-6.294;2023-12-14T01:13:24;100733.10;;;18.01;9.28
64698;BME280;51124;53.394;-6.294;2023-12-14T01:15:52;100732.97;;;17.01;9.36
64698;BME280;51124;53.394;-6.294;2023-12-14T01:18:19;100725.46;;;16.55;9.31
64698;BME280;51124;53.394;-6.294;2023-12-14T01:20:47;100711.58;;;17.00;9.33
64698;BME280;51124;53.394;-6.294;2023-12-14T01:23:24;100699.48;;;17.41;9.18
64698;BME280;51124;53.394;-6.294;2023-12-14T01:25:51;100711.37;;;18.34;9.14
64698;BME280;51124;53.394;-6.294;2023-12-14T01:28:19;100719.99;;;16.65;9.24
64698;BME280;51124;53.394;-6.294;2023-12-14T01:30:46;100728.08;;;16.89;9.20
64698;BME280;51124;53.394;-6.294;2023-12-14T01:33:13;100719.32;;;16.28;9.28
64698;BME280;51124;53.394;-6.294;2023-12-14T01:35:41;100710.90;;;17.57;8.88
64698;BME280;51124;53.394;-6.294;2023-12-14T01:38:08;100703.01;;;17.43;8.80
64698;BME280;51124;53.394;-6.294;2023-12-14T01:40:36;100711.34;;;17.91;8.85
64698;BME280;51124;53.394;-6.294;2023-12-14T01:43:10;100709.80;;;16.97;9.05
64698;BME280;51124;53.394;-6.294;2023-12-14T01:45:38;100708.89;;;17.88;8.85
64698;BME280;51124;53.394;-6.294;2023-12-14T01:48:05;100708.83;;;16.44;9.09
64698;BME280;51124;53.394;-6.294;2023-12-14T01:50:33;100708.78;;;16.89;9.04
64698;BME280;51124;53.394;-6.294;2023-12-14T01:53:00;100719.42;;;16.08;8.96
64698;BME280;51124;53.394;-6.294;2023-12-14T01:55:28;100714.17;;;16.32;9.18
64698;BME280;51124;53.394;-6.294;2023-12-14T01:57:55;100710.45;;;16.85;8.91
64698;BME280;51124;53.394;-6.294;2023-12-14T02:00:27;100719.15;;;17.66;8.76
64698;BME280;51124;53.394;-6.294;2023-12-14T02:02:57;100711.94;;;17.06;9.05
64698;BME280;51124;53.394;-6.294;2023-12-14T02:05:25;100704.59;;;17.04;8.79
64698;BME280;51124;53.394;-6.294;2023-12-14T02:07:52;100703.17;;;17.17;8.86
64698;BME280;51124;53.394;-6.294;2023-12-14T02:10:19;100700.73;;;16.51;9.13
64698;BME280;51124;53.394;-6.294;2023-12-14T02:12:47;100709.94;;;17.13;9.00
64698;BME280;51124;53.394;-6.294;2023-12-14T02:15:14;100712.08;;;17.63;8.81
64698;BME280;51124;53.394;-6.294;2023-12-14T02:17:42;100705.22;;;17.32;8.88
64698;BME280;51124;53.394;-6.294;2023-12-14T02:20:10;100710.43;;;16.42;9.05
64698;BME280;51124;53.394;-6.294;2023-12-14T02:22:50;100706.45;;;16.78;8.91
64698;BME280;51124;53.394;-6.294;2023-12-14T02:25:08;100703.22;;;18.70;8.78
64698;BME280;51124;53.394;-6.294;2023-12-14T02:27:35;100709.85;;;16.24;9.19
64698;BME280;51124;53.394;-6.294;2023-12-14T02:30:03;100716.22;;;16.68;9.11
64698;BME280;51124;53.394;-6.294;2023-12-14T02:32:30;100723.71;;;17.97;8.81
64698;BME280;51124;53.394;-6.294;2023-12-14T02:34:57;100719.40;;;17.15;8.72
64698;BME280;51124;53.394;-6.294;2023-12-14T02:37:25;100720.97;;;17.62;8.98
64698;BME280;51124;53.394;-6.294;2023-12-14T02:39:52;100721.28;;;17.46;8.87
64698;BME280;51124;53.394;-6.294;2023-12-14T02:42:20;100727.52;;;18.03;8.71
64698;BME280;51124;53.394;-6.294;2023-12-14T02:44:48;100727.56;;;16.91;8.95
64698;BME280;51124;53.394;-6.294;2023-12-14T02:47:16;100725.40;;;17.08;8.93
64698;BME280;51124;53.394;-6.294;2023-12-14T02:49:43;100725.14;;;17.42;8.73
64698;BME280;51124;53.394;-6.294;2023-12-14T02:52:11;100723.50;;;17.21;8.77
64698;BME280;51124;53.394;-6.294;2023-12-14T02:54:40;100723.67;;;19.68;9.09
64698;BME280;51124;53.394;-6.294;2023-12-14T02:57:07;100727.65;;;19.14;9.47
64698;BME280;51124;53.394;-6.294;2023-12-14T02:59:35;100731.64;;;17.40;9.79
64698;BME280;51124;53.394;-6.294;2023-12-14T03:02:02;100717.48;;;18.23;9.38
64698;BME280;51124;53.394;-6.294;2023-12-14T03:04:30;100724.14;;;20.69;9.86
64698;BME280;51124;53.394;-6.294;2023-12-14T03:06:57;100722.30;;;19.82;10.26
64698;BME280;51124;53.394;-6.294;2023-12-14T03:09:25;100729.92;;;19.86;10.72
64698;BME280;51124;53.394;-6.294;2023-12-14T03:11:53;100738.19;;;18.09;11.29
64698;BME280;51124;53.394;-6.294;2023-12-14T03:14:20;100730.90;;;18.93;10.88
64698;BME280;51124;53.394;-6.294;2023-12-14T03:16:48;100733.28;;;19.61;10.80
64698;BME280;51124;53.394;-6.294;2023-12-14T03:19:15;100749.41;;;20.00;10.86
64698;BME280;51124;53.394;-6.294;2023-12-14T03:21:43;100744.06;;;19.06;11.11
64698;BME280;51124;53.394;-6.294;2023-12-14T03:24:11;100740.68;;;18.93;11.07
64698;BME280;51124;53.394;-6.294;2023-12-14T03:26:38;100738.05;;;19.48;11.06
64698;BME280;51124;53.394;-6.294;2023-12-14T03:29:06;100739.29;;;19.51;11.02
64698;BME280;51124;53.394;-6.294;2023-12-14T03:31:33;100736.13;;;19.32;11.26
64698;BME280;51124;53.394;-6.294;2023-12-14T03:34:01;100739.98;;;19.29;11.04
64698;BME280;51124;53.394;-6.294;2023-12-14T03:36:28;100731.05;;;19.67;11.00
64698;BME280;51124;53.394;-6.294;2023-12-14T03:38:56;100731.67;;;19.52;11.15
64698;BME280;51124;53.394;-6.294;2023-12-14T03:41:24;100733.70;;;19.80;11.07
64698;BME280;51124;53.394;-6.294;2023-12-14T03:43:51;100721.95;;;19.32;11.15
64698;BME280;51124;53.394;-6.294;2023-12-14T03:46:18;100718.89;;;19.11;11.15
64698;BME280;51124;53.394;-6.294;2023-12-14T03:48:46;100721.00;;;19.16;11.12
64698;BME280;51124;53.394;-6.294;2023-12-14T03:51:17;100723.53;;;20.09;11.03
64698;BME280;51124;53.394;-6.294;2023-12-14T03:53:45;100719.79;;;18.63;11.04
64698;BME280;51124;53.394;-6.294;2023-12-14T03:56:12;100713.98;;;16.75;10.76
64698;BME280;51124;53.394;-6.294;2023-12-14T03:58:40;100716.37;;;17.24;10.05
64698;BME280;51124;53.394;-6.294;2023-12-14T04:01:07;100725.01;;;16.04;10.30
64698;BME280;51124;53.394;-6.294;2023-12-14T04:03:35;100713.70;;;17.78;9.62
64698;BME280;51124;53.394;-6.294;2023-12-14T04:06:02;100722.67;;;16.68;9.72
64698;BME280;51124;53.394;-6.294;2023-12-14T04:08:30;100721.85;;;16.95;9.54
64698;BME280;51124;53.394;-6.294;2023-12-14T04:10:57;100721.53;;;16.90;9.51
64698;BME280;51124;53.394;-6.294;2023-12-14T04:13:26;100714.70;;;16.81;9.38
64698;BME280;51124;53.394;-6.294;2023-12-14T04:15:53;100711.13;;;17.41;9.13
64698;BME280;51124;53.394;-6.294;2023-12-14T04:18:21;100710.28;;;18.42;9.20
64698;BME280;51124;53.394;-6.294;2023-12-14T04:20:48;100713.84;;;17.03;9.19
64698;BME280;51124;53.394;-6.294;2023-12-14T04:23:16;100714.91;;;16.75;9.19
64698;BME280;51124;53.394;-6.294;2023-12-14T04:25:43;100714.03;;;16.17;9.39
64698;BME280;51124;53.394;-6.294;2023-12-14T04:28:10;100715.21;;;16.97;8.98
64698;BME280;51124;53.394;-6.294;2023-12-14T04:30:38;100718.07;;;16.63;9.01
64698;BME280;51124;53.394;-6.294;2023-12-14T04:33:05;100720.38;;;17.06;8.77
64698;BME280;51124;53.394;-6.294;2023-12-14T04:35:33;100713.37;;;17.28;8.73
64698;BME280;51124;53.394;-6.294;2023-12-14T04:38:00;100724.88;;;17.22;8.75
64698;BME280;51124;53.394;-6.294;2023-12-14T04:40:27;100726.91;;;17.08;9.06
64698;BME280;51124;53.394;-6.294;2023-12-14T04:42:55;100730.25;;;17.06;9.04
64698;BME280;51124;53.394;-6.294;2023-12-14T04:45:22;100723.99;;;17.20;8.92
64698;BME280;51124;53.394;-6.294;2023-12-14T04:47:50;100730.17;;;17.06;8.98
64698;BME280;51124;53.394;-6.294;2023-12-14T04:50:17;100738.49;;;16.16;9.17
64698;BME280;51124;53.394;-6.294;2023-12-14T04:52:44;100730.39;;;17.34;8.88
64698;BME280;51124;53.394;-6.294;2023-12-14T04:55:12;100743.53;;;17.79;8.69
64698;BME280;51124;53.394;-6.294;2023-12-14T04:57:39;100756.23;;;17.15;8.72
64698;BME280;51124;53.394;-6.294;2023-12-14T05:00:08;100757.26;;;16.64;8.87
64698;BME280;51124;53.394;-6.294;2023-12-14T05:02:35;100772.93;;;16.63;8.91
64698;BME280;51124;53.394;-6.294;2023-12-14T05:05:02;100770.17;;;16.30;8.91
64698;BME280;51124;53.394;-6.294;2023-12-14T05:07:30;100776.06;;;17.86;8.71
64698;BME280;51124;53.394;-6.294;2023-12-14T05:09:57;100779.03;;;16.86;8.96
64698;BME280;51124;53.394;-6.294;2023-12-14T05:12:25;100778.09;;;18.20;8.52
64698;BME280;51124;53.394;-6.294;2023-12-14T05:14:52;100779.86;;;18.15;8.54
64698;BME280;51124;53.394;-6.294;2023-12-14T05:17:19;100780.39;;;18.08;8.77
64698;BME280;51124;53.394;-6.294;2023-12-14T05:19:47;100777.62;;;18.07;8.81
64698;BME280;51124;53.394;-6.294;2023-12-14T05:22:14;100782.80;;;17.60;8.63
64698;BME280;51124;53.394;-6.294;2023-12-14T05:24:45;100781.57;;;17.59;8.95
64698;BME280;51124;53.394;-6.294;2023-12-14T05:27:12;100781.30;;;18.26;8.68
64698;BME280;51124;53.394;-6.294;2023-12-14T05:29:40;100783.18;;;16.84;8.94
64698;BME280;51124;53.394;-6.294;2023-12-14T05:32:07;100781.27;;;17.40;8.76
64698;BME280;51124;53.394;-6.294;2023-12-14T05:34:35;100784.47;;;17.32;8.90
64698;BME280;51124;53.394;-6.294;2023-12-14T05:37:02;100786.64;;;18.79;8.78
64698;BME280;51124;53.394;-6.294;2023-12-14T05:39:29;100785.57;;;17.00;9.03
64698;BME280;51124;53.394;-6.294;2023-12-14T05:41:57;100791.13;;;15.50;9.30
64698;BME280;51124;53.394;-6.294;2023-12-14T05:44:24;100795.05;;;16.33;9.18
64698;BME280;51124;53.394;-6.294;2023-12-14T05:46:51;100801.17;;;16.29;9.01
64698;BME280;51124;53.394;-6.294;2023-12-14T05:49:19;100802.90;;;17.81;8.86
64698;BME280;51124;53.394;-6.294;2023-12-14T05:51:46;100808.00;;;16.66;8.94
64698;BME280;51124;53.394;-6.294;2023-12-14T05:54:14;100812.06;;;20.46;8.71
64698;BME280;51124;53.394;-6.294;2023-12-14T05:56:41;100820.92;;;19.45;9.30
64698;BME280;51124;53.394;-6.294;2023-12-14T05:59:09;100827.58;;;18.43;9.61
64698;BME280;51124;53.394;-6.294;2023-12-14T06:01:36;100830.68;;;17.71;9.54
64698;BME280;51124;53.394;-6.294;2023-12-14T06:04:04;100833.41;;;20.35;9.83
64698;BME280;51124;53.394;-6.294;2023-12-14T06:06:31;100836.17;;;20.67;10.20
64698;BME280;51124;53.394;-6.294;2023-12-14T06:08:59;100846.80;;;20.41;10.27
64698;BME280;51124;53.394;-6.294;2023-12-14T06:11:26;100855.92;;;19.91;10.63
64698;BME280;51124;53.394;-6.294;2023-12-14T06:13:54;100865.82;;;20.03;10.74
64698;BME280;51124;53.394;-6.294;2023-12-14T06:16:22;100871.14;;;19.45;10.82
64698;BME280;51124;53.394;-6.294;2023-12-14T06:18:49;100875.74;;;19.92;10.82
64698;BME280;51124;53.394;-6.294;2023-12-14T06:21:17;100877.57;;;19.98;10.76
64698;BME280;51124;53.394;-6.294;2023-12-14T06:23:45;100880.89;;;19.53;10.98
64698;BME280;51124;53.394;-6.294;2023-12-14T06:26:12;100886.68;;;20.68;10.72
64698;BME280;51124;53.394;-6.294;2023-12-14T06:28:40;100887.25;;;19.45;10.89
64698;BME280;51124;53.394;-6.294;2023-12-14T06:31:11;100889.28;;;19.73;10.84
64698;BME280;51124;53.394;-6.294;2023-12-14T06:33:39;100893.65;;;20.49;10.78
64698;BME280;51124;53.394;-6.294;2023-12-14T06:36:08;100901.92;;;19.04;11.25
64698;BME280;51124;53.394;-6.294;2023-12-14T06:38:37;100910.88;;;19.73;11.09
64698;BME280;51124;53.394;-6.294;2023-12-14T06:41:05;100913.62;;;19.24;11.24
64698;BME280;51124;53.394;-6.294;2023-12-14T06:43:33;100919.21;;;20.30;10.85
64698;BME280;51124;53.394;-6.294;2023-12-14T06:46:01;100925.70;;;18.93;11.07
64698;BME280;51124;53.394;-6.294;2023-12-14T06:48:28;100920.54;;;19.53;11.02
64698;BME280;51124;53.394;-6.294;2023-12-14T06:50:56;100923.57;;;19.69;11.25
64698;BME280;51124;53.394;-6.294;2023-12-14T06:53:24;100922.93;;;18.24;11.32
64698;BME280;51124;53.394;-6.294;2023-12-14T06:55:51;100927.11;;;17.10;10.91
64698;BME280;51124;53.394;-6.294;2023-12-14T06:58:19;100930.83;;;16.64;10.47
64698;BME280;51124;53.394;-6.294;2023-12-14T07:00:46;100936.13;;;17.06;10.04
64698;BME280;51124;53.394;-6.294;2023-12-14T07:03:14;100936.47;;;18.14;9.75
64698;BME280;51124;53.394;-6.294;2023-12-14T07:05:41;100949.40;;;17.37;9.81
64698;BME280;51124;53.394;-6.294;2023-12-14T07:08:09;100954.17;;;17.03;9.74
64698;BME280;51124;53.394;-6.294;2023-12-14T07:10:36;100950.92;;;17.01;9.60
64698;BME280;51124;53.394;-6.294;2023-12-14T07:13:03;100952.91;;;17.28;9.43
64698;BME280;51124;53.394;-6.294;2023-12-14T07:15:31;100956.18;;;17.10;9.20
64698;BME280;51124;53.394;-6.294;2023-12-14T07:17:58;100963.97;;;18.71;8.92
64698;BME280;51124;53.394;-6.294;2023-12-14T07:20:26;100971.81;;;17.19;9.32
64698;BME280;51124;53.394;-6.294;2023-12-14T07:22:53;100979.94;;;17.14;9.26
64698;BME280;51124;53.394;-6.294;2023-12-14T07:25:21;100992.37;;;15.85;9.61
64698;BME280;51124;53.394;-6.294;2023-12-14T07:27:48;100990.24;;;16.44;9.43
64698;BME280;51124;53.394;-6.294;2023-12-14T07:30:16;100996.18;;;16.24;9.30
64698;BME280;51124;53.394;-6.294;2023-12-14T07:32:43;101001.68;;;18.06;8.92
64698;BME280;51124;53.394;-6.294;2023-12-14T07:35:11;101003.95;;;15.30;9.53
64698;BME280;51124;53.394;-6.294;2023-12-14T07:37:38;101009.86;;;14.77;9.61
64698;BME280;51124;53.394;-6.294;2023-12-14T07:40:07;101007.50;;;16.72;9.10
64698;BME280;51124;53.394;-6.294;2023-12-14T07:42:34;101009.76;;;17.91;8.73
64698;BME280;51124;53.394;-6.294;2023-12-14T07:45:02;101013.47;;;18.67;8.67
64698;BME280;51124;53.394;-6.294;2023-12-14T07:47:29;101020.86;;;17.61;8.76
64698;BME280;51124;53.394;-6.294;2023-12-14T07:49:57;101024.29;;;18.83;8.63
64698;BME280;51124;53.394;-6.294;2023-12-14T07:52:24;101025.14;;;18.57;8.57
64698;BME280;51124;53.394;-6.294;2023-12-14T07:54:51;101024.56;;;18.81;8.67
64698;BME280;51124;53.394;-6.294;2023-12-14T07:57:19;101031.18;;;19.49;8.43
64698;BME280;51124;53.394;-6.294;2023-12-14T07:59:46;101040.15;;;18.76;8.64
64698;BME280;51124;53.394;-6.294;2023-12-14T08:02:13;101043.46;;;18.48;8.62
64698;BME280;51124;53.394;-6.294;2023-12-14T08:04:41;101048.48;;;19.05;8.55
64698;BME280;51124;53.394;-6.294;2023-12-14T08:07:08;101048.57;;;19.14;8.48
64698;BME280;51124;53.394;-6.294;2023-12-14T08:09:36;101047.89;;;19.13;8.50
64698;BME280;51124;53.394;-6.294;2023-12-14T08:12:03;101050.48;;;18.54;8.58
64698;BME280;51124;53.394;-6.294;2023-12-14T08:14:31;101054.89;;;18.14;8.66
64698;BME280;51124;53.394;-6.294;2023-12-14T08:16:59;101060.63;;;18.44;8.58
64698;BME280;51124;53.394;-6.294;2023-12-14T08:19:26;101060.74;;;19.45;8.44
64698;BME280;51124;53.394;-6.294;2023-12-14T08:21:54;101067.48;;;18.64;8.56
64698;BME280;51124;53.394;-6.294;2023-12-14T08:24:21;101079.12;;;18.25;8.66
64698;BME280;51124;53.394;-6.294;2023-12-14T08:26:48;101089.21;;;20.84;8.52
64698;BME280;51124;53.394;-6.294;2023-12-14T08:29:16;101082.76;;;19.07;8.68
64698;BME280;51124;53.394;-6.294;2023-12-14T08:31:43;101093.46;;;18.95;8.65
64698;BME280;51124;53.394;-6.294;2023-12-14T08:34:11;101101.07;;;18.47;8.68
64698;BME280;51124;53.394;-6.294;2023-12-14T08:36:38;101106.72;;;18.69;8.76
64698;BME280;51124;53.394;-6.294;2023-12-14T08:39:06;101115.21;;;18.66;8.79
64698;BME280;51124;53.394;-6.294;2023-12-14T08:41:33;101114.95;;;19.41;8.65
64698;BME280;51124;53.394;-6.294;2023-12-14T08:44:01;101120.50;;;18.40;8.97
64698;BME280;51124;53.394;-6.294;2023-12-14T08:46:28;101124.76;;;17.57;9.02
64698;BME280;51124;53.394;-6.294;2023-12-14T08:48:56;101126.21;;;17.74;8.99
64698;BME280;51124;53.394;-6.294;2023-12-14T08:51:23;101129.47;;;16.77;9.08
64698;BME280;51124;53.394;-6.294;2023-12-14T08:53:50;101139.59;;;17.93;8.72
64698;BME280;51124;53.394;-6.294;2023-12-14T08:56:18;101136.97;;;19.75;8.81
64698;BME280;51124;53.394;-6.294;2023-12-14T08:58:45;101145.62;;;20.95;9.04
64698;BME280;51124;53.394;-6.294;2023-12-14T09:01:18;101157.78;;;20.55;9.39
64698;BME280;51124;53.394;-6.294;2023-12-14T09:03:46;101161.16;;;18.92;9.46
64698;BME280;51124;53.394;-6.294;2023-12-14T09:06:14;101164.32;;;20.84;9.38
64698;BME280;51124;53.394;-6.294;2023-12-14T09:08:41;101171.42;;;21.78;9.74
64698;BME280;51124;53.394;-6.294;2023-12-14T09:11:09;101174.34;;;21.07;10.15
64698;BME280;51124;53.394;-6.294;2023-12-14T09:13:36;101170.37;;;20.85;10.46
64698;BME280;51124;53.394;-6.294;2023-12-14T09:16:05;101183.55;;;21.09;10.65
64698;BME280;51124;53.394;-6.294;2023-12-14T09:18:33;101182.86;;;21.31;10.59
64698;BME280;51124;53.394;-6.294;2023-12-14T09:21:00;101193.57;;;19.93;10.87
64698;BME280;51124;53.394;-6.294;2023-12-14T09:23:28;101198.09;;;19.59;10.97
64698;BME280;51124;53.394;-6.294;2023-12-14T09:25:55;101201.13;;;20.46;10.91
64698;BME280;51124;53.394;-6.294;2023-12-14T09:28:24;101204.65;;;20.50;11.00
64698;BME280;51124;53.394;-6.294;2023-12-14T09:30:51;101207.45;;;20.76;10.89
64698;BME280;51124;53.394;-6.294;2023-12-14T09:33:19;101217.16;;;20.22;10.99
64698;BME280;51124;53.394;-6.294;2023-12-14T09:35:47;101220.48;;;19.99;11.17
64698;BME280;51124;53.394;-6.294;2023-12-14T09:38:14;101221.95;;;20.54;10.91
64698;BME280;51124;53.394;-6.294;2023-12-14T09:40:42;101235.97;;;20.08;11.05
64698;BME280;51124;53.394;-6.294;2023-12-14T09:43:20;101232.31;;;20.18;11.00
64698;BME280;51124;53.394;-6.294;2023-12-14T09:45:49;101233.97;;;19.96;10.92
64698;BME280;51124;53.394;-6.294;2023-12-14T09:48:17;101240.88;;;20.95;10.74
64698;BME280;51124;53.394;-6.294;2023-12-14T09:50:45;101246.20;;;20.35;11.12
64698;BME280;51124;53.394;-6.294;2023-12-14T09:53:14;101245.24;;;19.25;11.45
64698;BME280;51124;53.394;-6.294;2023-12-14T09:55:41;101245.83;;;19.58;11.08
64698;BME280;51124;53.394;-6.294;2023-12-14T09:58:09;101252.43;;;18.26;11.04
64698;BME280;51124;53.394;-6.294;2023-12-14T10:00:38;101252.90;;;17.33;10.56
64698;BME280;51124;53.394;-6.294;2023-12-14T10:03:23;101254.79;;;17.35;10.29
64698;BME280;51124;53.394;-6.294;2023-12-14T10:05:41;101252.94;;;18.20;10.01
64698;BME280;51124;53.394;-6.294;2023-12-14T10:08:08;101257.29;;;19.25;9.78
64698;BME280;51124;53.394;-6.294;2023-12-14T10:10:35;101259.45;;;17.87;9.88
64698;BME280;51124;53.394;-6.294;2023-12-14T10:13:03;101258.37;;;18.18;9.49
64698;BME280;51124;53.394;-6.294;2023-12-14T10:15:39;101265.34;;;17.20;9.44
64698;BME280;51124;53.394;-6.294;2023-12-14T10:17:57;101268.85;;;17.87;9.48
64698;BME280;51124;53.394;-6.294;2023-12-14T10:20:25;101274.39;;;17.73;9.28
64698;BME280;51124;53.394;-6.294;2023-12-14T10:22:52;101279.10;;;17.24;9.37
64698;BME280;51124;53.394;-6.294;2023-12-14T10:25:20;101286.67;;;18.33;9.13
64698;BME280;51124;53.394;-6.294;2023-12-14T10:27:50;101295.40;;;18.40;8.89
64698;BME280;51124;53.394;-6.294;2023-12-14T10:30:18;101304.32;;;17.39;9.15
64698;BME280;51124;53.394;-6.294;2023-12-14T10:32:46;101310.55;;;17.90;9.09
64698;BME280;51124;53.394;-6.294;2023-12-14T10:35:14;101310.01;;;18.08;8.90
64698;BME280;51124;53.394;-6.294;2023-12-14T10:37:42;101315.23;;;17.51;9.19
64698;BME280;51124;53.394;-6.294;2023-12-14T10:40:11;101316.40;;;18.44;8.91
64698;BME280;51124;53.394;-6.294;2023-12-14T10:42:42;101320.50;;;18.84;8.93
64698;BME280;51124;53.394;-6.294;2023-12-14T10:45:11;101323.24;;;16.95;9.20
64698;BME280;51124;53.394;-6.294;2023-12-14T10:47:39;101323.14;;;18.08;8.84
64698;BME280;51124;53.394;-6.294;2023-12-14T10:50:11;101333.12;;;17.98;8.99
64698;BME280;51124;53.394;-6.294;2023-12-14T10:52:39;101326.27;;;16.36;9.31
64698;BME280;51124;53.394;-6.294;2023-12-14T10:55:10;101328.67;;;17.17;9.24
64698;BME280;51124;53.394;-6.294;2023-12-14T10:57:38;101327.22;;;17.83;9.00
64698;BME280;51124;53.394;-6.294;2023-12-14T11:00:07;101331.15;;;16.94;9.00
64698;BME280;51124;53.394;-6.294;2023-12-14T11:02:39;101328.01;;;18.16;8.92
64698;BME280;51124;53.394;-6.294;2023-12-14T11:05:07;101337.90;;;17.62;8.82
64698;BME280;51124;53.394;-6.294;2023-12-14T11:07:48;101327.00;;;16.80;9.29
64698;BME280;51124;53.394;-6.294;2023-12-14T11:10:07;101322.85;;;17.43;9.06
64698;BME280;51124;53.394;-6.294;2023-12-14T11:12:35;101318.72;;;18.47;8.91
64698;BME280;51124;53.394;-6.294;2023-12-14T11:15:03;101321.95;;;17.97;8.98
64698;BME280;51124;53.394;-6.294;2023-12-14T11:17:32;101333.56;;;16.66;9.38
64698;BME280;51124;53.394;-6.294;2023-12-14T11:20:00;101338.28;;;16.90;9.93
64698;BME280;51124;53.394;-6.294;2023-12-14T11:22:30;101329.26;;;18.69;9.40
64698;BME280;51124;53.394;-6.294;2023-12-14T11:24:57;101335.27;;;18.63;9.49
64698;BME280;51124;53.394;-6.294;2023-12-14T11:27:29;101346.60;;;17.93;9.76
64698;BME280;51124;53.394;-6.294;2023-12-14T11:29:56;101348.41;;;18.54;9.30
64698;BME280;51124;53.394;-6.294;2023-12-14T11:32:25;101359.22;;;17.46;10.49
64698;BME280;51124;53.394;-6.294;2023-12-14T11:34:52;101354.74;;;16.57;10.65
64698;BME280;51124;53.394;-6.294;2023-12-14T11:37:19;101358.02;;;16.82;10.53
64698;BME280;51124;53.394;-6.294;2023-12-14T11:39:49;101354.90;;;15.44;10.68
64698;BME280;51124;53.394;-6.294;2023-12-14T11:42:17;101351.62;;;15.19;10.37
64698;BME280;51124;53.394;-6.294;2023-12-14T11:44:45;101349.96;;;16.37;10.48
64698;BME280;51124;53.394;-6.294;2023-12-14T11:47:13;101356.73;;;16.99;10.03
64698;BME280;51124;53.394;-6.294;2023-12-14T11:49:40;101363.80;;;15.76;10.09
64698;BME280;51124;53.394;-6.294;2023-12-14T11:52:08;101356.56;;;17.94;9.46
64698;BME280;51124;53.394;-6.294;2023-12-14T11:54:36;101359.47;;;17.07;9.72
64698;BME280;51124;53.394;-6.294;2023-12-14T11:57:04;101357.49;;;17.44;9.47
64698;BME280;51124;53.394;-6.294;2023-12-14T11:59:34;101363.47;;;17.61;9.89
64698;BME280;51124;53.394;-6.294;2023-12-14T12:02:03;101361.88;;;19.28;10.25
64698;BME280;51124;53.394;-6.294;2023-12-14T12:04:30;101364.33;;;18.75;10.56
64698;BME280;51124;53.394;-6.294;2023-12-14T12:07:02;101368.03;;;18.39;10.62
64698;BME280;51124;53.394;-6.294;2023-12-14T12:09:39;101372.16;;;19.37;10.26
64698;BME280;51124;53.394;-6.294;2023-12-14T12:11:57;101369.58;;;21.56;10.36
64698;BME280;51124;53.394;-6.294;2023-12-14T12:14:25;101370.48;;;21.27;10.70
64698;BME280;51124;53.394;-6.294;2023-12-14T12:16:53;101375.35;;;21.11;11.14
64698;BME280;51124;53.394;-6.294;2023-12-14T12:19:20;101378.06;;;20.99;11.20
64698;BME280;51124;53.394;-6.294;2023-12-14T12:21:48;101384.13;;;20.25;11.48
64698;BME280;51124;53.394;-6.294;2023-12-14T12:24:15;101385.11;;;20.61;11.51
64698;BME280;51124;53.394;-6.294;2023-12-14T12:26:43;101389.18;;;21.33;11.53
64698;BME280;51124;53.394;-6.294;2023-12-14T12:29:11;101388.08;;;20.63;11.67
64698;BME280;51124;53.394;-6.294;2023-12-14T12:31:38;101384.95;;;20.65;11.73
64698;BME280;51124;53.394;-6.294;2023-12-14T12:34:06;101393.60;;;20.92;11.74
64698;BME280;51124;53.394;-6.294;2023-12-14T12:36:34;101392.79;;;21.28;11.82
64698;BME280;51124;53.394;-6.294;2023-12-14T12:39:02;101394.96;;;20.44;12.00
64698;BME280;51124;53.394;-6.294;2023-12-14T12:41:30;101394.45;;;19.68;12.00
64698;BME280;51124;53.394;-6.294;2023-12-14T12:43:57;101390.22;;;20.61;11.80
64698;BME280;51124;53.394;-6.294;2023-12-14T12:46:25;101392.79;;;20.66;11.67
64698;BME280;51124;53.394;-6.294;2023-12-14T12:48:53;101393.34;;;21.43;11.52